Sv.knyaz Vladimir — UBKI2 — position and weather

sailwx.info

Track history (hours):
 
Tides and Currents Weather Stations Pressure Air Temp Water Temp Dewpoint Dewpoint Depression Visibility Wind Speed Wind Dir Waves Ship Positions

Sv.knyaz Vladimir

Last reported at 2016-Jul-29 02:33 UTC. Time now 2016-Jul-31 09:29 UTC.
Position N 47°03' E 038°43'.

Length 128 m; draft 2.9 m.

Type: Cargo ship. MMSI: 273350360.

Date/timePositionNaut miles runAvg speedWind from/ knotsBaromVisibWave heightAir tempDewpointWater temp
2016-Jul-29 02:33N 47°03' E 038°43'11 7.6
2016-Jul-29 01:06N 47°00' E 038°28'89 7.5
2016-Jul-28 13:11N 45°54' E 037°01'22 8.2
2016-Jul-28 10:33N 45°34' E 036°49'8 8.1
2016-Jul-28 09:34N 45°28' E 036°42'7 7.3
2016-Jul-28 08:34N 45°21' E 036°38'7 7.2
2016-Jul-28 07:34N 45°18' E 036°29'7 6.5
2016-Jul-28 06:32N 45°11' E 036°30'2 2.4
2016-Jul-28 05:31N 45°09' E 036°33'0 0.0
2016-Jul-28 04:31N 45°09' E 036°33'0 0.0
2016-Jul-28 03:31N 45°09' E 036°33'0 0.0
2016-Jul-28 02:22N 45°09' E 036°33'0 0.0
2016-Jul-28 01:31N 45°09' E 036°33'0 0.0
2016-Jul-27 23:19N 45°09' E 036°33'0 0.0
2016-Jul-27 22:31N 45°09' E 036°33'0 0.0
2016-Jul-27 21:07N 45°09' E 036°33'0 0.0
2016-Jul-27 20:28N 45°09' E 036°33'0 0.0
2016-Jul-27 19:31N 45°09' E 036°33'1 0.5
2016-Jul-27 18:26N 45°09' E 036°32'0 0.0
2016-Jul-27 17:23N 45°09' E 036°32'0 0.0
2016-Jul-27 16:32N 45°09' E 036°32'0 0.0
2016-Jul-27 15:32N 45°09' E 036°32'0 0.0
2016-Jul-27 14:29N 45°09' E 036°32'0 0.0
2016-Jul-27 13:32N 45°09' E 036°32'1 1.5
2016-Jul-27 12:33N 45°08' E 036°33'0 0.0
2016-Jul-27 11:33N 45°08' E 036°33'0 0.0
2016-Jul-27 10:33N 45°08' E 036°33'0 0.1
2016-Jul-27 09:33N 45°08' E 036°33'0 0.0
2016-Jul-27 08:27N 45°08' E 036°33'0 0.0
2016-Jul-27 07:33N 45°08' E 036°33'0 0.0
2016-Jul-27 06:18N 45°08' E 036°33'0 0.0
2016-Jul-27 05:27N 45°08' E 036°33'0 0.0
2016-Jul-27 04:24N 45°08' E 036°33'0 0.0
2016-Jul-27 03:30N 45°08' E 036°33'0 0.0
2016-Jul-27 00:33N 45°08' E 036°33'0 0.0
2016-Jul-26 22:14N 45°08' E 036°33'0 0.0
2016-Jul-26 21:08N 45°08' E 036°33'0 0.1
2016-Jul-26 20:14N 45°08' E 036°33'1 0.8
2016-Jul-26 19:11N 45°08' E 036°34'0 0.0
2016-Jul-26 17:32N 45°08' E 036°34'0 0.0
2016-Jul-26 16:34N 45°08' E 036°34'5 5.2
2016-Jul-26 15:34N 45°11' E 036°28'7 6.9
2016-Jul-26 14:34N 45°18' E 036°29'8 8.2
2016-Jul-26 13:34N 45°22' E 036°40'8 8.0
2016-Jul-26 12:33N 45°30' E 036°43'  
2016-Jul-22 10:21N 45°36' E 036°50'7 8.6
2016-Jul-22 09:33N 45°31' E 036°45'8 8.3
2016-Jul-22 08:33N 45°23' E 036°41'8 8.0
2016-Jul-22 07:34N 45°19' E 036°31'7 2.5
2016-Jul-22 04:33N 45°11' E 036°30'0 0.0
2016-Jul-22 03:33N 45°11' E 036°30'0 0.0
2016-Jul-22 02:33N 45°11' E 036°30'3 2.4
2016-Jul-22 01:21N 45°09' E 036°33'1 0.2
2016-Jul-21 18:30N 45°08' E 036°33'0 0.1
2016-Jul-21 16:21N 45°08' E 036°33'0 0.0
2016-Jul-21 15:21N 45°08' E 036°33'0 0.0
2016-Jul-21 09:27N 45°08' E 036°34'0 0.1
2016-Jul-21 08:27N 45°08' E 036°33'0 0.0
2016-Jul-21 07:27N 45°08' E 036°34'0 0.0
2016-Jul-21 06:33N 45°08' E 036°34'0 0.0
2016-Jul-21 05:33N 45°08' E 036°34'0 0.1
2016-Jul-20 22:15N 45°08' E 036°33'5 7.6
2016-Jul-20 21:33N 45°12' E 036°28'6 6.2
2016-Jul-20 20:34N 45°18' E 036°30'8 7.6
2016-Jul-20 19:33N 45°22' E 036°39'7 7.1
2016-Jul-20 18:33N 45°28' E 036°44'0 0.0
2016-Jul-20 17:33N 45°28' E 036°44'3 3.0
2016-Jul-20 16:33N 45°31' E 036°44'  
Track history (hours):
 
Tides and Currents Weather Stations Pressure Air Temp Water Temp Dewpoint Dewpoint Depression Visibility Wind Speed Wind Dir Waves Ship Positions

Sv.knyaz Vladimir

Last reported at 2016-Jul-29 02:33 UTC. Time now 2016-Jul-31 09:29 UTC.
Position N 47°03' E 038°43'.

Length 128 m; draft 2.9 m.

Type: Cargo ship. MMSI: 273350360.

Date/timePositionNaut miles runAvg speedWind from/ knotsBaromVisibWave heightAir tempDewpointWater temp
2016-Jul-29 02:33N 47°03' E 038°43'11 7.6
2016-Jul-29 01:06N 47°00' E 038°28'89 7.5
2016-Jul-28 13:11N 45°54' E 037°01'22 8.2
2016-Jul-28 10:33N 45°34' E 036°49'8 8.1
2016-Jul-28 09:34N 45°28' E 036°42'7 7.3
2016-Jul-28 08:34N 45°21' E 036°38'7 7.2
2016-Jul-28 07:34N 45°18' E 036°29'7 6.5
2016-Jul-28 06:32N 45°11' E 036°30'2 2.4
2016-Jul-28 05:31N 45°09' E 036°33'0 0.0
2016-Jul-28 04:31N 45°09' E 036°33'0 0.0
2016-Jul-28 03:31N 45°09' E 036°33'0 0.0
2016-Jul-28 02:22N 45°09' E 036°33'0 0.0
2016-Jul-28 01:31N 45°09' E 036°33'0 0.0
2016-Jul-27 23:19N 45°09' E 036°33'0 0.0
2016-Jul-27 22:31N 45°09' E 036°33'0 0.0
2016-Jul-27 21:07N 45°09' E 036°33'0 0.0
2016-Jul-27 20:28N 45°09' E 036°33'0 0.0
2016-Jul-27 19:31N 45°09' E 036°33'1 0.5
2016-Jul-27 18:26N 45°09' E 036°32'0 0.0
2016-Jul-27 17:23N 45°09' E 036°32'0 0.0
2016-Jul-27 16:32N 45°09' E 036°32'0 0.0
2016-Jul-27 15:32N 45°09' E 036°32'0 0.0
2016-Jul-27 14:29N 45°09' E 036°32'0 0.0
2016-Jul-27 13:32N 45°09' E 036°32'1 1.5
2016-Jul-27 12:33N 45°08' E 036°33'0 0.0
2016-Jul-27 11:33N 45°08' E 036°33'0 0.0
2016-Jul-27 10:33N 45°08' E 036°33'0 0.1
2016-Jul-27 09:33N 45°08' E 036°33'0 0.0
2016-Jul-27 08:27N 45°08' E 036°33'0 0.0
2016-Jul-27 07:33N 45°08' E 036°33'0 0.0
2016-Jul-27 06:18N 45°08' E 036°33'0 0.0
2016-Jul-27 05:27N 45°08' E 036°33'0 0.0
2016-Jul-27 04:24N 45°08' E 036°33'0 0.0
2016-Jul-27 03:30N 45°08' E 036°33'0 0.0
2016-Jul-27 00:33N 45°08' E 036°33'0 0.0
2016-Jul-26 22:14N 45°08' E 036°33'0 0.0
2016-Jul-26 21:08N 45°08' E 036°33'0 0.1
2016-Jul-26 20:14N 45°08' E 036°33'1 0.8
2016-Jul-26 19:11N 45°08' E 036°34'0 0.0
2016-Jul-26 17:32N 45°08' E 036°34'0 0.0
2016-Jul-26 16:34N 45°08' E 036°34'5 5.2
2016-Jul-26 15:34N 45°11' E 036°28'7 6.9
2016-Jul-26 14:34N 45°18' E 036°29'8 8.2
2016-Jul-26 13:34N 45°22' E 036°40'8 8.0
2016-Jul-26 12:33N 45°30' E 036°43'  
2016-Jul-22 10:21N 45°36' E 036°50'7 8.6
2016-Jul-22 09:33N 45°31' E 036°45'8 8.3
2016-Jul-22 08:33N 45°23' E 036°41'8 8.0
2016-Jul-22 07:34N 45°19' E 036°31'7 2.5
2016-Jul-22 04:33N 45°11' E 036°30'0 0.0
2016-Jul-22 03:33N 45°11' E 036°30'0 0.0
2016-Jul-22 02:33N 45°11' E 036°30'3 2.4
2016-Jul-22 01:21N 45°09' E 036°33'1 0.2
2016-Jul-21 18:30N 45°08' E 036°33'0 0.1
2016-Jul-21 16:21N 45°08' E 036°33'0 0.0
2016-Jul-21 15:21N 45°08' E 036°33'0 0.0
2016-Jul-21 09:27N 45°08' E 036°34'0 0.1
2016-Jul-21 08:27N 45°08' E 036°33'0 0.0
2016-Jul-21 07:27N 45°08' E 036°34'0 0.0
2016-Jul-21 06:33N 45°08' E 036°34'0 0.0
2016-Jul-21 05:33N 45°08' E 036°34'0 0.1
2016-Jul-20 22:15N 45°08' E 036°33'5 7.6
2016-Jul-20 21:33N 45°12' E 036°28'6 6.2
2016-Jul-20 20:34N 45°18' E 036°30'8 7.6
2016-Jul-20 19:33N 45°22' E 036°39'7 7.1
2016-Jul-20 18:33N 45°28' E 036°44'0 0.0
2016-Jul-20 17:33N 45°28' E 036°44'3 3.0
2016-Jul-20 16:33N 45°31' E 036°44'  

Dump ship's entire track history